sensor_id;sensor_type;location;lat;lon;timestamp;temperature;humidity
8824;DHT22;4448;50.904;4.694;2022-11-03T00:01:39;12.70;99.90
8824;DHT22;4448;50.904;4.694;2022-11-03T00:04:07;12.80;99.90
8824;DHT22;4448;50.904;4.694;2022-11-03T00:06:33;12.90;99.90
8824;DHT22;4448;50.904;4.694;2022-11-03T00:09:01;12.80;99.90
8824;DHT22;4448;50.904;4.694;2022-11-03T00:11:27;13.00;99.90
8824;DHT22;4448;50.904;4.694;2022-11-03T00:13:53;13.00;99.90
8824;DHT22;4448;50.904;4.694;2022-11-03T00:16:19;12.80;99.90
8824;DHT22;4448;50.904;4.694;2022-11-03T00:18:45;12.80;99.90
8824;DHT22;4448;50.904;4.694;2022-11-03T00:21:12;13.00;99.90
8824;DHT22;4448;50.904;4.694;2022-11-03T00:23:39;12.70;99.90
8824;DHT22;4448;50.904;4.694;2022-11-03T00:26:14;13.10;99.90
8824;DHT22;4448;50.904;4.694;2022-11-03T00:28:42;12.80;99.90
8824;DHT22;4448;50.904;4.694;2022-11-03T00:31:14;13.00;99.90
8824;DHT22;4448;50.904;4.694;2022-11-03T00:33:41;12.60;99.90
8824;DHT22;4448;50.904;4.694;2022-11-03T00:36:10;12.70;99.90
8824;DHT22;4448;50.904;4.694;2022-11-03T00:38:36;12.80;99.90
8824;DHT22;4448;50.904;4.694;2022-11-03T00:41:03;12.60;99.90
8824;DHT22;4448;50.904;4.694;2022-11-03T00:43:31;12.70;99.90
8824;DHT22;4448;50.904;4.694;2022-11-03T00:45:57;12.90;99.90
8824;DHT22;4448;50.904;4.694;2022-11-03T00:48:22;12.90;99.90
8824;DHT22;4448;50.904;4.694;2022-11-03T00:51:16;12.70;99.90
8824;DHT22;4448;50.904;4.694;2022-11-03T00:56:16;12.80;99.90
8824;DHT22;4448;50.904;4.694;2022-11-03T00:58:43;13.00;99.90
8824;DHT22;4448;50.904;4.694;2022-11-03T01:01:11;12.70;99.90
8824;DHT22;4448;50.904;4.694;2022-11-03T01:03:39;12.60;99.90
8824;DHT22;4448;50.904;4.694;2022-11-03T01:06:07;12.50;99.90
8824;DHT22;4448;50.904;4.694;2022-11-03T01:08:52;12.70;99.90
8824;DHT22;4448;50.904;4.694;2022-11-03T01:11:20;12.60;99.90
8824;DHT22;4448;50.904;4.694;2022-11-03T01:14:05;12.60;99.90
8824;DHT22;4448;50.904;4.694;2022-11-03T01:16:31;12.90;99.90
8824;DHT22;4448;50.904;4.694;2022-11-03T01:18:57;12.60;99.90
8824;DHT22;4448;50.904;4.694;2022-11-03T01:21:24;12.70;99.90
8824;DHT22;4448;50.904;4.694;2022-11-03T01:23:49;12.50;99.90
8824;DHT22;4448;50.904;4.694;2022-11-03T01:26:15;12.60;99.90
8824;DHT22;4448;50.904;4.694;2022-11-03T01:28:44;12.20;99.90
8824;DHT22;4448;50.904;4.694;2022-11-03T01:31:22;12.60;99.90
8824;DHT22;4448;50.904;4.694;2022-11-03T01:33:52;12.70;99.90
8824;DHT22;4448;50.904;4.694;2022-11-03T01:36:18;12.50;99.90
8824;DHT22;4448;50.904;4.694;2022-11-03T01:38:45;12.60;99.90
8824;DHT22;4448;50.904;4.694;2022-11-03T01:41:16;12.50;99.90
8824;DHT22;4448;50.904;4.694;2022-11-03T01:43:42;12.80;99.90
8824;DHT22;4448;50.904;4.694;2022-11-03T01:46:25;12.80;99.90
8824;DHT22;4448;50.904;4.694;2022-11-03T01:49:18;12.70;99.90
8824;DHT22;4448;50.904;4.694;2022-11-03T01:51:50;12.60;99.90
8824;DHT22;4448;50.904;4.694;2022-11-03T01:54:19;12.50;99.90
8824;DHT22;4448;50.904;4.694;2022-11-03T01:56:46;12.50;99.90
8824;DHT22;4448;50.904;4.694;2022-11-03T01:59:14;12.50;99.90
8824;DHT22;4448;50.904;4.694;2022-11-03T02:01:41;12.70;99.90
8824;DHT22;4448;50.904;4.694;2022-11-03T02:04:11;12.50;99.90
8824;DHT22;4448;50.904;4.694;2022-11-03T02:06:38;12.50;99.90
8824;DHT22;4448;50.904;4.694;2022-11-03T02:09:06;12.40;99.90
8824;DHT22;4448;50.904;4.694;2022-11-03T02:11:33;12.40;99.90
8824;DHT22;4448;50.904;4.694;2022-11-03T02:14:17;12.40;99.90
8824;DHT22;4448;50.904;4.694;2022-11-03T02:16:55;12.60;99.90
8824;DHT22;4448;50.904;4.694;2022-11-03T02:22:19;12.30;99.90
8824;DHT22;4448;50.904;4.694;2022-11-03T02:27:18;12.30;99.90
8824;DHT22;4448;50.904;4.694;2022-11-03T02:29:44;12.40;99.90
8824;DHT22;4448;50.904;4.694;2022-11-03T02:32:22;12.30;99.90
8824;DHT22;4448;50.904;4.694;2022-11-03T02:37:42;12.40;99.90
8824;DHT22;4448;50.904;4.694;2022-11-03T02:40:27;12.40;99.90
8824;DHT22;4448;50.904;4.694;2022-11-03T02:42:54;12.50;99.90
8824;DHT22;4448;50.904;4.694;2022-11-03T02:45:23;12.40;99.90
8824;DHT22;4448;50.904;4.694;2022-11-03T02:47:50;12.40;99.90
8824;DHT22;4448;50.904;4.694;2022-11-03T02:50:17;12.80;99.90
8824;DHT22;4448;50.904;4.694;2022-11-03T02:52:48;12.20;99.90
8824;DHT22;4448;50.904;4.694;2022-11-03T03:00:20;12.50;99.90
8824;DHT22;4448;50.904;4.694;2022-11-03T03:02:51;12.30;99.90
8824;DHT22;4448;50.904;4.694;2022-11-03T03:05:21;12.40;99.90
8824;DHT22;4448;50.904;4.694;2022-11-03T03:07:52;12.30;99.90
8824;DHT22;4448;50.904;4.694;2022-11-03T03:10:26;12.40;99.90
8824;DHT22;4448;50.904;4.694;2022-11-03T03:12:56;12.30;99.90
8824;DHT22;4448;50.904;4.694;2022-11-03T03:15:45;12.50;99.90
8824;DHT22;4448;50.904;4.694;2022-11-03T03:18:24;12.50;99.90
8824;DHT22;4448;50.904;4.694;2022-11-03T03:21:32;12.50;99.90
8824;DHT22;4448;50.904;4.694;2022-11-03T03:24:08;12.40;99.90
8824;DHT22;4448;50.904;4.694;2022-11-03T03:26:41;12.40;99.90
8824;DHT22;4448;50.904;4.694;2022-11-03T03:29:14;12.80;99.90
8824;DHT22;4448;50.904;4.694;2022-11-03T03:31:48;12.50;99.90
8824;DHT22;4448;50.904;4.694;2022-11-03T03:34:17;12.80;99.90
8824;DHT22;4448;50.904;4.694;2022-11-03T03:36:45;12.50;99.90
8824;DHT22;4448;50.904;4.694;2022-11-03T03:39:13;12.70;99.90
8824;DHT22;4448;50.904;4.694;2022-11-03T03:41:40;12.60;99.90
8824;DHT22;4448;50.904;4.694;2022-11-03T03:44:07;12.40;99.90
8824;DHT22;4448;50.904;4.694;2022-11-03T03:46:37;12.60;99.90
8824;DHT22;4448;50.904;4.694;2022-11-03T03:49:05;12.60;99.90
8824;DHT22;4448;50.904;4.694;2022-11-03T03:51:32;12.40;99.90
8824;DHT22;4448;50.904;4.694;2022-11-03T03:53:58;12.50;99.90
8824;DHT22;4448;50.904;4.694;2022-11-03T03:59:13;12.40;99.90
8824;DHT22;4448;50.904;4.694;2022-11-03T04:01:38;12.60;99.90
8824;DHT22;4448;50.904;4.694;2022-11-03T04:04:04;12.70;99.90
8824;DHT22;4448;50.904;4.694;2022-11-03T04:06:30;12.50;99.90
8824;DHT22;4448;50.904;4.694;2022-11-03T04:08:56;12.80;99.90
8824;DHT22;4448;50.904;4.694;2022-11-03T04:11:21;12.60;99.90
8824;DHT22;4448;50.904;4.694;2022-11-03T04:14:06;12.80;99.90
8824;DHT22;4448;50.904;4.694;2022-11-03T04:16:51;12.80;99.90
8824;DHT22;4448;50.904;4.694;2022-11-03T04:19:35;12.80;99.90
8824;DHT22;4448;50.904;4.694;2022-11-03T04:22:19;13.00;99.90
8824;DHT22;4448;50.904;4.694;2022-11-03T04:24:50;12.60;99.90
8824;DHT22;4448;50.904;4.694;2022-11-03T04:27:32;12.70;99.90
8824;DHT22;4448;50.904;4.694;2022-11-03T04:30:19;12.60;99.90
8824;DHT22;4448;50.904;4.694;2022-11-03T04:32:47;12.60;99.90
8824;DHT22;4448;50.904;4.694;2022-11-03T04:35:23;12.80;99.90
8824;DHT22;4448;50.904;4.694;2022-11-03T04:38:02;12.70;99.90
8824;DHT22;4448;50.904;4.694;2022-11-03T04:40:29;12.70;99.90
8824;DHT22;4448;50.904;4.694;2022-11-03T04:42:55;12.60;99.90
8824;DHT22;4448;50.904;4.694;2022-11-03T04:45:31;12.70;99.90
8824;DHT22;4448;50.904;4.694;2022-11-03T04:48:01;12.80;99.90
8824;DHT22;4448;50.904;4.694;2022-11-03T04:50:30;12.60;99.90
8824;DHT22;4448;50.904;4.694;2022-11-03T04:52:57;12.70;99.90
8824;DHT22;4448;50.904;4.694;2022-11-03T04:55:23;12.80;99.90
8824;DHT22;4448;50.904;4.694;2022-11-03T04:57:55;12.80;99.90
8824;DHT22;4448;50.904;4.694;2022-11-03T05:00:21;12.90;99.90
8824;DHT22;4448;50.904;4.694;2022-11-03T05:02:48;12.90;99.90
8824;DHT22;4448;50.904;4.694;2022-11-03T05:05:23;12.90;99.90
8824;DHT22;4448;50.904;4.694;2022-11-03T05:07:57;13.10;99.90
8824;DHT22;4448;50.904;4.694;2022-11-03T05:10:27;12.80;99.90
8824;DHT22;4448;50.904;4.694;2022-11-03T05:12:54;13.00;99.90
8824;DHT22;4448;50.904;4.694;2022-11-03T05:15:51;13.20;99.90
8824;DHT22;4448;50.904;4.694;2022-11-03T05:18:20;12.90;99.90
8824;DHT22;4448;50.904;4.694;2022-11-03T05:20:53;13.20;99.90
8824;DHT22;4448;50.904;4.694;2022-11-03T05:23:20;13.00;99.90
8824;DHT22;4448;50.904;4.694;2022-11-03T05:25:49;13.00;99.90
8824;DHT22;4448;50.904;4.694;2022-11-03T05:28:25;13.10;99.90
8824;DHT22;4448;50.904;4.694;2022-11-03T05:30:52;12.90;99.90
8824;DHT22;4448;50.904;4.694;2022-11-03T05:33:28;13.00;99.90
8824;DHT22;4448;50.904;4.694;2022-11-03T05:36:01;13.00;99.90
8824;DHT22;4448;50.904;4.694;2022-11-03T05:38:32;13.00;99.90
8824;DHT22;4448;50.904;4.694;2022-11-03T05:40:58;13.20;99.90
8824;DHT22;4448;50.904;4.694;2022-11-03T05:43:25;12.90;99.90
8824;DHT22;4448;50.904;4.694;2022-11-03T05:45:56;13.10;99.90
8824;DHT22;4448;50.904;4.694;2022-11-03T05:48:34;13.00;99.90
8824;DHT22;4448;50.904;4.694;2022-11-03T05:53:43;13.00;99.90
8824;DHT22;4448;50.904;4.694;2022-11-03T05:56:18;12.90;99.90
8824;DHT22;4448;50.904;4.694;2022-11-03T05:58:45;13.10;99.90
8824;DHT22;4448;50.904;4.694;2022-11-03T06:03:46;12.90;99.90
8824;DHT22;4448;50.904;4.694;2022-11-03T06:06:21;12.90;99.90
8824;DHT22;4448;50.904;4.694;2022-11-03T06:08:47;12.90;99.90
8824;DHT22;4448;50.904;4.694;2022-11-03T06:11:26;12.90;99.90
8824;DHT22;4448;50.904;4.694;2022-11-03T06:13:54;12.90;99.90
8824;DHT22;4448;50.904;4.694;2022-11-03T06:19:43;13.00;99.90
8824;DHT22;4448;50.904;4.694;2022-11-03T06:22:10;13.20;99.90
8824;DHT22;4448;50.904;4.694;2022-11-03T06:24:38;13.00;99.90
8824;DHT22;4448;50.904;4.694;2022-11-03T06:27:04;12.90;99.90
8824;DHT22;4448;50.904;4.694;2022-11-03T06:29:31;12.90;99.90
8824;DHT22;4448;50.904;4.694;2022-11-03T06:31:58;13.00;99.90
8824;DHT22;4448;50.904;4.694;2022-11-03T06:34:34;13.20;99.90
8824;DHT22;4448;50.904;4.694;2022-11-03T06:37:12;13.20;99.90
8824;DHT22;4448;50.904;4.694;2022-11-03T06:39:39;13.00;99.90
8824;DHT22;4448;50.904;4.694;2022-11-03T06:42:14;13.00;99.90
8824;DHT22;4448;50.904;4.694;2022-11-03T06:44:47;13.10;99.90
8824;DHT22;4448;50.904;4.694;2022-11-03T06:47:26;13.10;99.90
8824;DHT22;4448;50.904;4.694;2022-11-03T06:49:57;13.10;99.90
8824;DHT22;4448;50.904;4.694;2022-11-03T06:52:32;13.10;99.90
8824;DHT22;4448;50.904;4.694;2022-11-03T06:57:36;13.10;99.90
8824;DHT22;4448;50.904;4.694;2022-11-03T07:00:29;13.10;99.90
8824;DHT22;4448;50.904;4.694;2022-11-03T07:05:26;13.10;99.90
8824;DHT22;4448;50.904;4.694;2022-11-03T07:07:55;13.10;99.90
8824;DHT22;4448;50.904;4.694;2022-11-03T07:10:30;13.30;99.90
8824;DHT22;4448;50.904;4.694;2022-11-03T07:13:11;13.20;99.90
8824;DHT22;4448;50.904;4.694;2022-11-03T07:15:38;13.00;99.90
8824;DHT22;4448;50.904;4.694;2022-11-03T07:18:20;13.20;99.90
8824;DHT22;4448;50.904;4.694;2022-11-03T07:20:46;13.10;99.90
8824;DHT22;4448;50.904;4.694;2022-11-03T07:23:16;13.10;99.90
8824;DHT22;4448;50.904;4.694;2022-11-03T07:25:47;13.00;99.90
8824;DHT22;4448;50.904;4.694;2022-11-03T07:28:14;13.20;99.90
8824;DHT22;4448;50.904;4.694;2022-11-03T07:30:40;13.00;99.90
8824;DHT22;4448;50.904;4.694;2022-11-03T07:33:23;13.10;99.90
8824;DHT22;4448;50.904;4.694;2022-11-03T07:35:51;13.00;99.90
8824;DHT22;4448;50.904;4.694;2022-11-03T07:38:20;13.20;99.90
8824;DHT22;4448;50.904;4.694;2022-11-03T07:40:48;13.30;99.90
8824;DHT22;4448;50.904;4.694;2022-11-03T07:43:23;13.00;99.90
8824;DHT22;4448;50.904;4.694;2022-11-03T07:45:54;13.00;99.90
8824;DHT22;4448;50.904;4.694;2022-11-03T07:48:35;13.10;99.90
8824;DHT22;4448;50.904;4.694;2022-11-03T07:51:16;13.20;99.90
8824;DHT22;4448;50.904;4.694;2022-11-03T07:53:47;13.30;99.90
8824;DHT22;4448;50.904;4.694;2022-11-03T07:58:58;13.20;99.90
8824;DHT22;4448;50.904;4.694;2022-11-03T08:03:51;13.30;99.90
8824;DHT22;4448;50.904;4.694;2022-11-03T08:06:17;13.40;99.90
8824;DHT22;4448;50.904;4.694;2022-11-03T08:08:42;13.40;99.90
8824;DHT22;4448;50.904;4.694;2022-11-03T08:11:09;13.40;99.90
8824;DHT22;4448;50.904;4.694;2022-11-03T08:13:35;13.00;99.90
8824;DHT22;4448;50.904;4.694;2022-11-03T08:16:00;13.10;99.90
8824;DHT22;4448;50.904;4.694;2022-11-03T08:18:26;13.50;99.90
8824;DHT22;4448;50.904;4.694;2022-11-03T08:20:52;13.30;99.90
8824;DHT22;4448;50.904;4.694;2022-11-03T08:23:17;13.20;99.90
8824;DHT22;4448;50.904;4.694;2022-11-03T08:25:44;13.20;99.90
8824;DHT22;4448;50.904;4.694;2022-11-03T08:28:10;13.60;99.90
8824;DHT22;4448;50.904;4.694;2022-11-03T08:30:36;13.30;99.90
8824;DHT22;4448;50.904;4.694;2022-11-03T08:33:01;13.30;99.90
8824;DHT22;4448;50.904;4.694;2022-11-03T08:35:27;13.50;99.90
8824;DHT22;4448;50.904;4.694;2022-11-03T08:37:52;13.50;99.90
8824;DHT22;4448;50.904;4.694;2022-11-03T08:40:18;13.60;99.90
8824;DHT22;4448;50.904;4.694;2022-11-03T08:42:44;13.80;99.90
8824;DHT22;4448;50.904;4.694;2022-11-03T08:45:10;13.30;99.90
8824;DHT22;4448;50.904;4.694;2022-11-03T08:47:36;13.40;99.90
8824;DHT22;4448;50.904;4.694;2022-11-03T08:50:03;13.70;99.90
8824;DHT22;4448;50.904;4.694;2022-11-03T08:52:30;13.50;99.90
8824;DHT22;4448;50.904;4.694;2022-11-03T08:54:56;13.80;99.90
8824;DHT22;4448;50.904;4.694;2022-11-03T08:57:22;13.90;99.90
8824;DHT22;4448;50.904;4.694;2022-11-03T08:59:47;13.40;99.90
8824;DHT22;4448;50.904;4.694;2022-11-03T09:02:13;13.60;99.90
8824;DHT22;4448;50.904;4.694;2022-11-03T09:04:39;13.50;99.90
8824;DHT22;4448;50.904;4.694;2022-11-03T09:07:05;13.50;99.90
8824;DHT22;4448;50.904;4.694;2022-11-03T09:09:31;13.70;99.90
8824;DHT22;4448;50.904;4.694;2022-11-03T09:11:56;13.40;99.90
8824;DHT22;4448;50.904;4.694;2022-11-03T09:14:22;13.50;99.90
8824;DHT22;4448;50.904;4.694;2022-11-03T09:16:47;13.30;99.90
8824;DHT22;4448;50.904;4.694;2022-11-03T09:19:13;13.40;99.90
8824;DHT22;4448;50.904;4.694;2022-11-03T09:21:39;13.40;99.90
8824;DHT22;4448;50.904;4.694;2022-11-03T09:24:05;13.60;99.90
8824;DHT22;4448;50.904;4.694;2022-11-03T09:26:30;13.40;99.90
8824;DHT22;4448;50.904;4.694;2022-11-03T09:28:56;13.40;99.90
8824;DHT22;4448;50.904;4.694;2022-11-03T09:31:21;13.60;99.90
8824;DHT22;4448;50.904;4.694;2022-11-03T09:33:50;13.50;99.90
8824;DHT22;4448;50.904;4.694;2022-11-03T09:36:15;13.30;99.90
8824;DHT22;4448;50.904;4.694;2022-11-03T09:38:41;13.60;99.90
8824;DHT22;4448;50.904;4.694;2022-11-03T09:41:07;13.40;99.90
8824;DHT22;4448;50.904;4.694;2022-11-03T09:43:33;13.80;99.90
8824;DHT22;4448;50.904;4.694;2022-11-03T09:45:59;13.60;99.90
8824;DHT22;4448;50.904;4.694;2022-11-03T09:48:25;13.60;99.90
8824;DHT22;4448;50.904;4.694;2022-11-03T09:50:52;13.60;99.90
8824;DHT22;4448;50.904;4.694;2022-11-03T09:53:19;14.20;99.90
8824;DHT22;4448;50.904;4.694;2022-11-03T09:55:45;13.70;99.90
8824;DHT22;4448;50.904;4.694;2022-11-03T09:58:16;13.90;99.90
8824;DHT22;4448;50.904;4.694;2022-11-03T10:00:42;14.30;99.90
8824;DHT22;4448;50.904;4.694;2022-11-03T10:03:15;14.00;99.90
8824;DHT22;4448;50.904;4.694;2022-11-03T10:05:43;14.10;99.90
8824;DHT22;4448;50.904;4.694;2022-11-03T10:08:27;14.30;99.90
8824;DHT22;4448;50.904;4.694;2022-11-03T10:10:54;14.40;99.90
8824;DHT22;4448;50.904;4.694;2022-11-03T10:13:30;14.20;99.90
8824;DHT22;4448;50.904;4.694;2022-11-03T10:15:59;14.00;99.90
8824;DHT22;4448;50.904;4.694;2022-11-03T10:18:26;14.30;99.90
8824;DHT22;4448;50.904;4.694;2022-11-03T10:20:52;14.10;99.90
8824;DHT22;4448;50.904;4.694;2022-11-03T10:23:18;14.40;99.90
8824;DHT22;4448;50.904;4.694;2022-11-03T10:25:44;14.40;99.90
8824;DHT22;4448;50.904;4.694;2022-11-03T10:28:23;14.60;99.90
8824;DHT22;4448;50.904;4.694;2022-11-03T10:31:21;14.40;99.90
8824;DHT22;4448;50.904;4.694;2022-11-03T10:33:53;14.60;99.90
8824;DHT22;4448;50.904;4.694;2022-11-03T10:38:45;14.70;99.90
8824;DHT22;4448;50.904;4.694;2022-11-03T10:41:21;14.70;99.90
8824;DHT22;4448;50.904;4.694;2022-11-03T10:44:17;14.70;99.90
8824;DHT22;4448;50.904;4.694;2022-11-03T10:49:24;14.80;99.90
8824;DHT22;4448;50.904;4.694;2022-11-03T10:51:52;14.90;99.90
8824;DHT22;4448;50.904;4.694;2022-11-03T10:54:20;14.80;99.90
8824;DHT22;4448;50.904;4.694;2022-11-03T10:56:47;15.10;99.90
8824;DHT22;4448;50.904;4.694;2022-11-03T10:59:26;15.20;99.90
8824;DHT22;4448;50.904;4.694;2022-11-03T11:01:57;14.90;99.90
8824;DHT22;4448;50.904;4.694;2022-11-03T11:04:23;15.10;99.90
8824;DHT22;4448;50.904;4.694;2022-11-03T11:06:48;14.90;99.90
8824;DHT22;4448;50.904;4.694;2022-11-03T11:09:24;14.90;99.90
8824;DHT22;4448;50.904;4.694;2022-11-03T11:12:16;15.00;99.90
8824;DHT22;4448;50.904;4.694;2022-11-03T11:14:59;15.20;99.90
8824;DHT22;4448;50.904;4.694;2022-11-03T11:17:51;15.20;99.90
8824;DHT22;4448;50.904;4.694;2022-11-03T11:20:18;15.20;99.90
8824;DHT22;4448;50.904;4.694;2022-11-03T11:22:52;15.50;99.90
8824;DHT22;4448;50.904;4.694;2022-11-03T11:25:18;15.20;99.90
8824;DHT22;4448;50.904;4.694;2022-11-03T11:37:42;15.20;99.90
8824;DHT22;4448;50.904;4.694;2022-11-03T11:40:48;15.40;99.90
8824;DHT22;4448;50.904;4.694;2022-11-03T11:48:35;15.60;99.90
8824;DHT22;4448;50.904;4.694;2022-11-03T11:51:02;15.40;99.90
8824;DHT22;4448;50.904;4.694;2022-11-03T11:53:36;15.60;99.90
8824;DHT22;4448;50.904;4.694;2022-11-03T11:56:03;15.60;99.90
8824;DHT22;4448;50.904;4.694;2022-11-03T11:58:39;15.80;99.90
8824;DHT22;4448;50.904;4.694;2022-11-03T12:01:33;16.00;99.90
8824;DHT22;4448;50.904;4.694;2022-11-03T12:06:46;16.30;99.90
8824;DHT22;4448;50.904;4.694;2022-11-03T12:11:45;16.40;99.90
8824;DHT22;4448;50.904;4.694;2022-11-03T12:14:44;16.00;99.90
8824;DHT22;4448;50.904;4.694;2022-11-03T12:19:49;16.00;99.90
8824;DHT22;4448;50.904;4.694;2022-11-03T12:24:57;15.80;99.90
8824;DHT22;4448;50.904;4.694;2022-11-03T12:29:53;15.80;99.90
8824;DHT22;4448;50.904;4.694;2022-11-03T12:32:19;15.80;99.90
8824;DHT22;4448;50.904;4.694;2022-11-03T12:34:45;15.70;99.90
8824;DHT22;4448;50.904;4.694;2022-11-03T12:37:11;15.90;99.90
8824;DHT22;4448;50.904;4.694;2022-11-03T12:39:37;15.80;99.90
8824;DHT22;4448;50.904;4.694;2022-11-03T12:42:03;15.60;99.90
8824;DHT22;4448;50.904;4.694;2022-11-03T12:44:29;15.60;99.90
8824;DHT22;4448;50.904;4.694;2022-11-03T12:46:54;15.60;99.90
8824;DHT22;4448;50.904;4.694;2022-11-03T12:49:20;15.60;99.90
8824;DHT22;4448;50.904;4.694;2022-11-03T12:51:45;15.30;99.90
8824;DHT22;4448;50.904;4.694;2022-11-03T12:54:11;15.20;99.90
8824;DHT22;4448;50.904;4.694;2022-11-03T12:56:37;15.10;99.90
8824;DHT22;4448;50.904;4.694;2022-11-03T12:59:03;15.10;99.90
8824;DHT22;4448;50.904;4.694;2022-11-03T13:01:29;15.10;99.90
8824;DHT22;4448;50.904;4.694;2022-11-03T13:03:54;15.20;99.90
8824;DHT22;4448;50.904;4.694;2022-11-03T13:06:20;15.00;99.90
8824;DHT22;4448;50.904;4.694;2022-11-03T13:08:45;15.00;99.90
8824;DHT22;4448;50.904;4.694;2022-11-03T13:11:11;15.20;99.90
8824;DHT22;4448;50.904;4.694;2022-11-03T13:13:56;15.10;99.90
8824;DHT22;4448;50.904;4.694;2022-11-03T13:16:22;15.00;99.90
8824;DHT22;4448;50.904;4.694;2022-11-03T13:18:49;14.80;99.90
8824;DHT22;4448;50.904;4.694;2022-11-03T13:21:16;14.40;99.90
8824;DHT22;4448;50.904;4.694;2022-11-03T13:23:42;14.70;99.90
8824;DHT22;4448;50.904;4.694;2022-11-03T13:26:08;14.00;99.90
8824;DHT22;4448;50.904;4.694;2022-11-03T13:28:33;14.10;99.90
8824;DHT22;4448;50.904;4.694;2022-11-03T13:30:59;12.50;99.90
8824;DHT22;4448;50.904;4.694;2022-11-03T13:33:25;14.10;99.90
8824;DHT22;4448;50.904;4.694;2022-11-03T13:35:51;13.80;99.90
8824;DHT22;4448;50.904;4.694;2022-11-03T13:38:16;13.20;99.90
8824;DHT22;4448;50.904;4.694;2022-11-03T13:40:42;13.30;99.90
8824;DHT22;4448;50.904;4.694;2022-11-03T13:43:07;13.30;99.90
8824;DHT22;4448;50.904;4.694;2022-11-03T13:45:33;13.50;99.90
8824;DHT22;4448;50.904;4.694;2022-11-03T13:47:59;13.30;99.90
8824;DHT22;4448;50.904;4.694;2022-11-03T13:50:24;13.50;99.90
8824;DHT22;4448;50.904;4.694;2022-11-03T13:52:50;13.30;99.90
8824;DHT22;4448;50.904;4.694;2022-11-03T13:55:17;13.30;99.90
8824;DHT22;4448;50.904;4.694;2022-11-03T13:57:43;13.10;99.90
8824;DHT22;4448;50.904;4.694;2022-11-03T14:00:10;13.30;99.90
8824;DHT22;4448;50.904;4.694;2022-11-03T14:02:40;13.20;99.90
8824;DHT22;4448;50.904;4.694;2022-11-03T14:05:06;13.40;99.90
8824;DHT22;4448;50.904;4.694;2022-11-03T14:07:32;13.30;99.90
8824;DHT22;4448;50.904;4.694;2022-11-03T14:09:58;13.20;99.90
8824;DHT22;4448;50.904;4.694;2022-11-03T14:12:24;13.50;99.90
8824;DHT22;4448;50.904;4.694;2022-11-03T14:15:06;13.10;99.90
8824;DHT22;4448;50.904;4.694;2022-11-03T14:17:33;13.20;99.90
8824;DHT22;4448;50.904;4.694;2022-11-03T14:19:59;13.20;99.90
8824;DHT22;4448;50.904;4.694;2022-11-03T14:22:24;13.20;99.90
8824;DHT22;4448;50.904;4.694;2022-11-03T14:24:51;13.00;99.90
8824;DHT22;4448;50.904;4.694;2022-11-03T14:27:18;13.00;99.90
8824;DHT22;4448;50.904;4.694;2022-11-03T14:29:44;13.20;99.90
8824;DHT22;4448;50.904;4.694;2022-11-03T14:32:14;13.50;99.90
8824;DHT22;4448;50.904;4.694;2022-11-03T14:34:40;13.20;99.90
8824;DHT22;4448;50.904;4.694;2022-11-03T14:37:06;13.20;99.90
8824;DHT22;4448;50.904;4.694;2022-11-03T14:39:33;13.20;99.90
8824;DHT22;4448;50.904;4.694;2022-11-03T14:42:01;13.30;99.90
8824;DHT22;4448;50.904;4.694;2022-11-03T14:44:34;13.40;99.90
8824;DHT22;4448;50.904;4.694;2022-11-03T14:47:02;13.30;99.90
8824;DHT22;4448;50.904;4.694;2022-11-03T14:49:32;13.20;99.90
8824;DHT22;4448;50.904;4.694;2022-11-03T14:52:01;13.30;99.90
8824;DHT22;4448;50.904;4.694;2022-11-03T14:54:28;13.30;99.90
8824;DHT22;4448;50.904;4.694;2022-11-03T14:56:54;13.40;99.90
8824;DHT22;4448;50.904;4.694;2022-11-03T14:59:20;13.60;99.90
8824;DHT22;4448;50.904;4.694;2022-11-03T15:01:47;13.30;99.90
8824;DHT22;4448;50.904;4.694;2022-11-03T15:04:12;13.40;99.90
8824;DHT22;4448;50.904;4.694;2022-11-03T15:06:39;13.40;99.90
8824;DHT22;4448;50.904;4.694;2022-11-03T15:09:06;13.70;99.90
8824;DHT22;4448;50.904;4.694;2022-11-03T15:11:32;13.40;99.90
8824;DHT22;4448;50.904;4.694;2022-11-03T15:13:57;13.50;99.90
8824;DHT22;4448;50.904;4.694;2022-11-03T15:16:23;13.40;99.90
8824;DHT22;4448;50.904;4.694;2022-11-03T15:18:49;13.40;99.90
8824;DHT22;4448;50.904;4.694;2022-11-03T15:21:16;13.50;99.90
8824;DHT22;4448;50.904;4.694;2022-11-03T15:23:41;13.40;99.90
8824;DHT22;4448;50.904;4.694;2022-11-03T15:26:07;13.40;99.90
8824;DHT22;4448;50.904;4.694;2022-11-03T15:28:33;13.40;99.90
8824;DHT22;4448;50.904;4.694;2022-11-03T15:30:59;13.40;99.90
8824;DHT22;4448;50.904;4.694;2022-11-03T15:33:26;13.30;99.90
8824;DHT22;4448;50.904;4.694;2022-11-03T15:35:52;13.10;99.90
8824;DHT22;4448;50.904;4.694;2022-11-03T15:38:17;13.40;99.90
8824;DHT22;4448;50.904;4.694;2022-11-03T15:40:44;13.30;99.90
8824;DHT22;4448;50.904;4.694;2022-11-03T15:43:10;13.10;99.90
8824;DHT22;4448;50.904;4.694;2022-11-03T15:45:35;12.90;99.90
8824;DHT22;4448;50.904;4.694;2022-11-03T15:48:01;12.80;99.90
8824;DHT22;4448;50.904;4.694;2022-11-03T15:50:27;12.90;99.90
8824;DHT22;4448;50.904;4.694;2022-11-03T15:52:53;12.60;99.90
8824;DHT22;4448;50.904;4.694;2022-11-03T15:55:19;12.90;99.90
8824;DHT22;4448;50.904;4.694;2022-11-03T15:57:46;12.90;99.90
8824;DHT22;4448;50.904;4.694;2022-11-03T16:00:12;12.90;99.90
8824;DHT22;4448;50.904;4.694;2022-11-03T16:02:38;12.50;99.90
8824;DHT22;4448;50.904;4.694;2022-11-03T16:05:04;12.70;99.90
8824;DHT22;4448;50.904;4.694;2022-11-03T16:07:30;12.40;99.90
8824;DHT22;4448;50.904;4.694;2022-11-03T16:09:55;12.40;99.90
8824;DHT22;4448;50.904;4.694;2022-11-03T16:12:22;13.30;99.90
8824;DHT22;4448;50.904;4.694;2022-11-03T16:14:52;12.20;99.90
8824;DHT22;4448;50.904;4.694;2022-11-03T16:17:18;12.70;99.90
8824;DHT22;4448;50.904;4.694;2022-11-03T16:19:45;12.30;99.90
8824;DHT22;4448;50.904;4.694;2022-11-03T16:22:11;12.10;99.90
8824;DHT22;4448;50.904;4.694;2022-11-03T16:24:36;12.20;99.90
8824;DHT22;4448;50.904;4.694;2022-11-03T16:27:02;12.10;99.90
8824;DHT22;4448;50.904;4.694;2022-11-03T16:29:29;12.10;99.90
8824;DHT22;4448;50.904;4.694;2022-11-03T16:31:54;12.10;99.90
8824;DHT22;4448;50.904;4.694;2022-11-03T16:34:20;12.20;99.90
8824;DHT22;4448;50.904;4.694;2022-11-03T16:36:46;12.30;99.90
8824;DHT22;4448;50.904;4.694;2022-11-03T16:39:11;12.20;99.90
8824;DHT22;4448;50.904;4.694;2022-11-03T16:41:38;12.00;99.90
8824;DHT22;4448;50.904;4.694;2022-11-03T16:44:04;12.00;99.90
8824;DHT22;4448;50.904;4.694;2022-11-03T16:46:30;12.00;99.90
8824;DHT22;4448;50.904;4.694;2022-11-03T16:48:55;11.90;99.90
8824;DHT22;4448;50.904;4.694;2022-11-03T16:51:21;12.30;99.90
8824;DHT22;4448;50.904;4.694;2022-11-03T16:53:47;12.10;99.90
8824;DHT22;4448;50.904;4.694;2022-11-03T16:56:12;12.20;99.90
8824;DHT22;4448;50.904;4.694;2022-11-03T16:58:38;12.00;99.90
8824;DHT22;4448;50.904;4.694;2022-11-03T17:01:04;12.40;99.90
8824;DHT22;4448;50.904;4.694;2022-11-03T17:03:30;12.20;99.90
8824;DHT22;4448;50.904;4.694;2022-11-03T17:05:56;12.20;99.90
8824;DHT22;4448;50.904;4.694;2022-11-03T17:08:22;12.00;99.90
8824;DHT22;4448;50.904;4.694;2022-11-03T17:10:48;12.10;99.90
8824;DHT22;4448;50.904;4.694;2022-11-03T17:13:14;12.10;99.90
8824;DHT22;4448;50.904;4.694;2022-11-03T17:15:41;12.10;99.90
8824;DHT22;4448;50.904;4.694;2022-11-03T17:18:07;12.00;99.90
8824;DHT22;4448;50.904;4.694;2022-11-03T17:20:32;12.00;99.90
8824;DHT22;4448;50.904;4.694;2022-11-03T17:22:58;12.30;99.90
8824;DHT22;4448;50.904;4.694;2022-11-03T17:25:24;12.00;99.90
8824;DHT22;4448;50.904;4.694;2022-11-03T17:27:52;12.10;99.90